sensor_id;sensor_type;location;lat;lon;timestamp;P1;durP1;ratioP1;P2;durP2;ratioP2
12745;SDS011;6437;53.686;10.030;2023-03-31T00:01:38;16.23;;;2.65;;
12745;SDS011;6437;53.686;10.030;2023-03-31T00:03:41;23.15;;;3.65;;
12745;SDS011;6437;53.686;10.030;2023-03-31T00:05:43;25.88;;;2.85;;
12745;SDS011;6437;53.686;10.030;2023-03-31T00:07:47;25.48;;;3.78;;
12745;SDS011;6437;53.686;10.030;2023-03-31T00:09:48;25.25;;;4.35;;
12745;SDS011;6437;53.686;10.030;2023-03-31T00:11:53;29.10;;;4.80;;
12745;SDS011;6437;53.686;10.030;2023-03-31T00:13:57;27.10;;;4.25;;
12745;SDS011;6437;53.686;10.030;2023-03-31T00:16:00;32.30;;;5.32;;
12745;SDS011;6437;53.686;10.030;2023-03-31T00:18:04;24.80;;;4.85;;
12745;SDS011;6437;53.686;10.030;2023-03-31T00:22:11;24.98;;;5.35;;
12745;SDS011;6437;53.686;10.030;2023-03-31T00:24:13;27.38;;;4.15;;
12745;SDS011;6437;53.686;10.030;2023-03-31T00:26:16;36.22;;;4.95;;
12745;SDS011;6437;53.686;10.030;2023-03-31T00:28:18;29.05;;;5.88;;
12745;SDS011;6437;53.686;10.030;2023-03-31T00:30:21;29.45;;;5.00;;
12745;SDS011;6437;53.686;10.030;2023-03-31T00:32:22;31.75;;;5.07;;
12745;SDS011;6437;53.686;10.030;2023-03-31T00:34:24;33.42;;;5.07;;
12745;SDS011;6437;53.686;10.030;2023-03-31T00:36:26;35.03;;;6.03;;
12745;SDS011;6437;53.686;10.030;2023-03-31T00:38:28;24.92;;;5.20;;
12745;SDS011;6437;53.686;10.030;2023-03-31T00:40:30;30.80;;;4.97;;
12745;SDS011;6437;53.686;10.030;2023-03-31T00:42:32;25.02;;;5.30;;
12745;SDS011;6437;53.686;10.030;2023-03-31T00:44:34;29.33;;;4.55;;
12745;SDS011;6437;53.686;10.030;2023-03-31T00:46:42;37.33;;;6.40;;
12745;SDS011;6437;53.686;10.030;2023-03-31T00:48:48;34.00;;;6.75;;
12745;SDS011;6437;53.686;10.030;2023-03-31T00:50:52;24.70;;;4.00;;
12745;SDS011;6437;53.686;10.030;2023-03-31T00:52:56;38.88;;;4.93;;
12745;SDS011;6437;53.686;10.030;2023-03-31T00:55:02;34.80;;;5.70;;
12745;SDS011;6437;53.686;10.030;2023-03-31T00:57:08;41.20;;;4.72;;
12745;SDS011;6437;53.686;10.030;2023-03-31T00:59:11;31.42;;;5.05;;
12745;SDS011;6437;53.686;10.030;2023-03-31T01:01:15;29.05;;;4.53;;
12745;SDS011;6437;53.686;10.030;2023-03-31T01:03:22;29.00;;;4.88;;
12745;SDS011;6437;53.686;10.030;2023-03-31T01:05:24;27.75;;;3.67;;
12745;SDS011;6437;53.686;10.030;2023-03-31T01:07:32;34.20;;;4.75;;
12745;SDS011;6437;53.686;10.030;2023-03-31T01:09:38;30.65;;;4.53;;
12745;SDS011;6437;53.686;10.030;2023-03-31T01:11:41;25.45;;;4.53;;
12745;SDS011;6437;53.686;10.030;2023-03-31T01:13:46;30.38;;;5.05;;
12745;SDS011;6437;53.686;10.030;2023-03-31T01:15:50;21.30;;;4.00;;
12745;SDS011;6437;53.686;10.030;2023-03-31T01:17:52;34.33;;;4.32;;
12745;SDS011;6437;53.686;10.030;2023-03-31T01:20:01;23.15;;;4.53;;
12745;SDS011;6437;53.686;10.030;2023-03-31T01:22:16;27.80;;;3.90;;
12745;SDS011;6437;53.686;10.030;2023-03-31T01:25:03;34.83;;;5.82;;
12745;SDS011;6437;53.686;10.030;2023-03-31T01:27:30;34.72;;;5.13;;
12745;SDS011;6437;53.686;10.030;2023-03-31T01:29:57;36.22;;;4.63;;
12745;SDS011;6437;53.686;10.030;2023-03-31T01:32:29;33.22;;;4.18;;
12745;SDS011;6437;53.686;10.030;2023-03-31T01:35:09;30.45;;;4.57;;
12745;SDS011;6437;53.686;10.030;2023-03-31T01:37:41;31.80;;;3.55;;
12745;SDS011;6437;53.686;10.030;2023-03-31T01:40:09;33.55;;;4.60;;
12745;SDS011;6437;53.686;10.030;2023-03-31T01:42:16;31.42;;;4.50;;
12745;SDS011;6437;53.686;10.030;2023-03-31T01:44:26;31.08;;;4.13;;
12745;SDS011;6437;53.686;10.030;2023-03-31T01:46:36;45.55;;;6.38;;
12745;SDS011;6437;53.686;10.030;2023-03-31T01:48:43;32.45;;;3.85;;
12745;SDS011;6437;53.686;10.030;2023-03-31T01:50:54;23.70;;;3.72;;
12745;SDS011;6437;53.686;10.030;2023-03-31T01:53:01;38.05;;;4.13;;
12745;SDS011;6437;53.686;10.030;2023-03-31T01:55:10;27.73;;;4.72;;
12745;SDS011;6437;53.686;10.030;2023-03-31T01:57:16;27.17;;;3.42;;
12745;SDS011;6437;53.686;10.030;2023-03-31T01:59:22;32.72;;;3.67;;
12745;SDS011;6437;53.686;10.030;2023-03-31T02:01:28;33.47;;;4.57;;
12745;SDS011;6437;53.686;10.030;2023-03-31T02:03:36;31.90;;;3.65;;
12745;SDS011;6437;53.686;10.030;2023-03-31T02:05:42;28.98;;;3.05;;
12745;SDS011;6437;53.686;10.030;2023-03-31T02:07:48;38.13;;;3.90;;
12745;SDS011;6437;53.686;10.030;2023-03-31T02:09:55;30.05;;;4.40;;
12745;SDS011;6437;53.686;10.030;2023-03-31T02:12:03;34.30;;;5.30;;
12745;SDS011;6437;53.686;10.030;2023-03-31T02:14:08;25.58;;;3.78;;
12745;SDS011;6437;53.686;10.030;2023-03-31T02:16:15;27.73;;;3.75;;
12745;SDS011;6437;53.686;10.030;2023-03-31T02:18:24;29.88;;;3.42;;
12745;SDS011;6437;53.686;10.030;2023-03-31T02:20:29;34.45;;;3.90;;
12745;SDS011;6437;53.686;10.030;2023-03-31T02:22:34;25.00;;;2.90;;
12745;SDS011;6437;53.686;10.030;2023-03-31T02:24:37;34.10;;;5.22;;
12745;SDS011;6437;53.686;10.030;2023-03-31T02:26:43;27.73;;;3.85;;
12745;SDS011;6437;53.686;10.030;2023-03-31T02:28:52;26.02;;;4.25;;
12745;SDS011;6437;53.686;10.030;2023-03-31T02:30:57;31.13;;;3.65;;
12745;SDS011;6437;53.686;10.030;2023-03-31T02:33:07;23.75;;;3.95;;
12745;SDS011;6437;53.686;10.030;2023-03-31T02:35:10;31.15;;;5.35;;
12745;SDS011;6437;53.686;10.030;2023-03-31T02:37:15;24.85;;;3.85;;
12745;SDS011;6437;53.686;10.030;2023-03-31T02:39:18;35.40;;;4.78;;
12745;SDS011;6437;53.686;10.030;2023-03-31T02:41:23;35.83;;;4.28;;
12745;SDS011;6437;53.686;10.030;2023-03-31T02:43:25;26.90;;;3.65;;
12745;SDS011;6437;53.686;10.030;2023-03-31T02:45:39;18.23;;;3.20;;
12745;SDS011;6437;53.686;10.030;2023-03-31T02:47:43;21.88;;;3.85;;
12745;SDS011;6437;53.686;10.030;2023-03-31T02:49:46;35.63;;;5.85;;
12745;SDS011;6437;53.686;10.030;2023-03-31T02:52:04;30.45;;;4.32;;
12745;SDS011;6437;53.686;10.030;2023-03-31T02:56:53;34.15;;;5.32;;
12745;SDS011;6437;53.686;10.030;2023-03-31T02:59:13;24.60;;;3.78;;
12745;SDS011;6437;53.686;10.030;2023-03-31T03:01:29;36.50;;;4.47;;
12745;SDS011;6437;53.686;10.030;2023-03-31T03:03:48;24.73;;;3.88;;
12745;SDS011;6437;53.686;10.030;2023-03-31T03:06:04;26.38;;;4.05;;
12745;SDS011;6437;53.686;10.030;2023-03-31T03:08:15;36.03;;;6.28;;
12745;SDS011;6437;53.686;10.030;2023-03-31T03:10:27;19.13;;;2.97;;
12745;SDS011;6437;53.686;10.030;2023-03-31T03:12:37;21.35;;;3.45;;
12745;SDS011;6437;53.686;10.030;2023-03-31T03:14:46;25.38;;;4.32;;
12745;SDS011;6437;53.686;10.030;2023-03-31T03:16:53;29.02;;;4.95;;
12745;SDS011;6437;53.686;10.030;2023-03-31T03:19:01;26.42;;;4.43;;
12745;SDS011;6437;53.686;10.030;2023-03-31T03:21:04;18.02;;;3.38;;
12745;SDS011;6437;53.686;10.030;2023-03-31T03:23:06;22.42;;;3.25;;
12745;SDS011;6437;53.686;10.030;2023-03-31T03:25:08;29.25;;;4.80;;
12745;SDS011;6437;53.686;10.030;2023-03-31T03:27:12;21.48;;;3.35;;
12745;SDS011;6437;53.686;10.030;2023-03-31T03:29:14;23.30;;;3.85;;
12745;SDS011;6437;53.686;10.030;2023-03-31T03:33:19;16.52;;;3.28;;
12745;SDS011;6437;53.686;10.030;2023-03-31T03:35:23;25.42;;;3.72;;
12745;SDS011;6437;53.686;10.030;2023-03-31T03:37:26;16.38;;;3.33;;
12745;SDS011;6437;53.686;10.030;2023-03-31T03:39:27;19.40;;;4.50;;
12745;SDS011;6437;53.686;10.030;2023-03-31T03:41:29;19.45;;;4.13;;
12745;SDS011;6437;53.686;10.030;2023-03-31T03:43:32;15.88;;;3.53;;
12745;SDS011;6437;53.686;10.030;2023-03-31T03:47:36;18.80;;;3.03;;
12745;SDS011;6437;53.686;10.030;2023-03-31T03:49:39;31.65;;;4.32;;
12745;SDS011;6437;53.686;10.030;2023-03-31T03:51:40;18.85;;;3.22;;
12745;SDS011;6437;53.686;10.030;2023-03-31T03:53:42;19.58;;;3.70;;
12745;SDS011;6437;53.686;10.030;2023-03-31T03:55:44;22.08;;;4.40;;
12745;SDS011;6437;53.686;10.030;2023-03-31T03:57:47;19.67;;;4.35;;
12745;SDS011;6437;53.686;10.030;2023-03-31T03:59:49;14.98;;;3.38;;
12745;SDS011;6437;53.686;10.030;2023-03-31T04:01:51;19.17;;;3.92;;
12745;SDS011;6437;53.686;10.030;2023-03-31T04:03:53;22.77;;;4.22;;
12745;SDS011;6437;53.686;10.030;2023-03-31T04:05:56;18.92;;;3.45;;
12745;SDS011;6437;53.686;10.030;2023-03-31T04:07:57;23.02;;;3.75;;
12745;SDS011;6437;53.686;10.030;2023-03-31T04:12:01;23.70;;;4.63;;
12745;SDS011;6437;53.686;10.030;2023-03-31T04:14:03;27.85;;;6.18;;
12745;SDS011;6437;53.686;10.030;2023-03-31T04:16:05;19.42;;;4.20;;
12745;SDS011;6437;53.686;10.030;2023-03-31T04:18:08;14.38;;;3.92;;
12745;SDS011;6437;53.686;10.030;2023-03-31T04:20:17;13.93;;;3.50;;
12745;SDS011;6437;53.686;10.030;2023-03-31T04:22:20;23.55;;;4.40;;
12745;SDS011;6437;53.686;10.030;2023-03-31T04:24:28;30.38;;;4.90;;
12745;SDS011;6437;53.686;10.030;2023-03-31T04:26:32;18.58;;;4.22;;
12745;SDS011;6437;53.686;10.030;2023-03-31T04:28:41;18.42;;;3.97;;
12745;SDS011;6437;53.686;10.030;2023-03-31T04:30:45;25.77;;;4.60;;
12745;SDS011;6437;53.686;10.030;2023-03-31T04:32:48;19.38;;;4.15;;
12745;SDS011;6437;53.686;10.030;2023-03-31T04:34:52;24.67;;;3.50;;
12745;SDS011;6437;53.686;10.030;2023-03-31T04:37:01;13.73;;;4.28;;
12745;SDS011;6437;53.686;10.030;2023-03-31T04:39:05;30.23;;;5.28;;
12745;SDS011;6437;53.686;10.030;2023-03-31T04:41:09;12.90;;;3.25;;
12745;SDS011;6437;53.686;10.030;2023-03-31T04:43:11;22.73;;;4.93;;
12745;SDS011;6437;53.686;10.030;2023-03-31T04:45:13;21.58;;;4.57;;
12745;SDS011;6437;53.686;10.030;2023-03-31T04:47:15;19.67;;;4.53;;
12745;SDS011;6437;53.686;10.030;2023-03-31T04:49:17;23.00;;;4.93;;
12745;SDS011;6437;53.686;10.030;2023-03-31T04:51:18;22.73;;;4.80;;
12745;SDS011;6437;53.686;10.030;2023-03-31T04:53:20;15.15;;;5.03;;
12745;SDS011;6437;53.686;10.030;2023-03-31T04:55:24;19.88;;;5.25;;
12745;SDS011;6437;53.686;10.030;2023-03-31T04:57:26;19.75;;;5.57;;
12745;SDS011;6437;53.686;10.030;2023-03-31T04:59:27;29.35;;;5.10;;
12745;SDS011;6437;53.686;10.030;2023-03-31T05:01:29;15.15;;;4.25;;
12745;SDS011;6437;53.686;10.030;2023-03-31T05:03:32;20.88;;;5.10;;
12745;SDS011;6437;53.686;10.030;2023-03-31T05:05:34;15.57;;;5.05;;
12745;SDS011;6437;53.686;10.030;2023-03-31T05:07:36;17.30;;;4.55;;
12745;SDS011;6437;53.686;10.030;2023-03-31T05:09:38;25.42;;;6.32;;
12745;SDS011;6437;53.686;10.030;2023-03-31T05:11:42;24.52;;;5.20;;
12745;SDS011;6437;53.686;10.030;2023-03-31T05:13:43;24.02;;;5.50;;
12745;SDS011;6437;53.686;10.030;2023-03-31T05:15:45;16.98;;;5.00;;
12745;SDS011;6437;53.686;10.030;2023-03-31T05:17:49;18.77;;;5.18;;
12745;SDS011;6437;53.686;10.030;2023-03-31T05:19:51;20.27;;;5.07;;
12745;SDS011;6437;53.686;10.030;2023-03-31T05:21:53;23.23;;;6.35;;
12745;SDS011;6437;53.686;10.030;2023-03-31T05:23:55;17.27;;;4.90;;
12745;SDS011;6437;53.686;10.030;2023-03-31T05:25:57;16.58;;;5.88;;
12745;SDS011;6437;53.686;10.030;2023-03-31T05:28:00;14.50;;;5.75;;
12745;SDS011;6437;53.686;10.030;2023-03-31T05:30:03;25.73;;;6.18;;
12745;SDS011;6437;53.686;10.030;2023-03-31T05:32:07;27.85;;;5.85;;
12745;SDS011;6437;53.686;10.030;2023-03-31T05:34:08;18.50;;;5.65;;
12745;SDS011;6437;53.686;10.030;2023-03-31T05:36:11;22.48;;;5.97;;
12745;SDS011;6437;53.686;10.030;2023-03-31T05:38:14;23.73;;;7.00;;
12745;SDS011;6437;53.686;10.030;2023-03-31T05:40:16;31.42;;;8.18;;
12745;SDS011;6437;53.686;10.030;2023-03-31T05:42:18;18.40;;;6.53;;
12745;SDS011;6437;53.686;10.030;2023-03-31T05:46:23;23.33;;;6.13;;
12745;SDS011;6437;53.686;10.030;2023-03-31T05:48:25;23.90;;;6.35;;
12745;SDS011;6437;53.686;10.030;2023-03-31T05:50:27;22.40;;;5.93;;
12745;SDS011;6437;53.686;10.030;2023-03-31T05:52:29;21.05;;;7.28;;
12745;SDS011;6437;53.686;10.030;2023-03-31T05:54:31;17.42;;;5.95;;
12745;SDS011;6437;53.686;10.030;2023-03-31T05:56:33;22.83;;;8.02;;
12745;SDS011;6437;53.686;10.030;2023-03-31T05:58:35;18.25;;;6.03;;
12745;SDS011;6437;53.686;10.030;2023-03-31T06:00:39;25.00;;;5.55;;
12745;SDS011;6437;53.686;10.030;2023-03-31T06:02:43;24.20;;;7.38;;
12745;SDS011;6437;53.686;10.030;2023-03-31T06:06:47;20.05;;;6.57;;
12745;SDS011;6437;53.686;10.030;2023-03-31T06:08:49;21.92;;;6.60;;
12745;SDS011;6437;53.686;10.030;2023-03-31T06:10:51;33.70;;;8.25;;
12745;SDS011;6437;53.686;10.030;2023-03-31T06:12:53;22.33;;;7.65;;
12745;SDS011;6437;53.686;10.030;2023-03-31T06:14:54;19.58;;;6.43;;
12745;SDS011;6437;53.686;10.030;2023-03-31T06:16:57;23.38;;;7.22;;
12745;SDS011;6437;53.686;10.030;2023-03-31T06:18:59;22.63;;;6.32;;
12745;SDS011;6437;53.686;10.030;2023-03-31T06:21:01;26.15;;;7.35;;
12745;SDS011;6437;53.686;10.030;2023-03-31T06:23:03;27.75;;;6.78;;
12745;SDS011;6437;53.686;10.030;2023-03-31T06:25:05;18.55;;;6.55;;
12745;SDS011;6437;53.686;10.030;2023-03-31T06:27:07;23.10;;;7.60;;
12745;SDS011;6437;53.686;10.030;2023-03-31T06:29:09;28.20;;;8.00;;
12745;SDS011;6437;53.686;10.030;2023-03-31T06:31:11;27.38;;;6.90;;
12745;SDS011;6437;53.686;10.030;2023-03-31T06:33:16;25.92;;;6.85;;
12745;SDS011;6437;53.686;10.030;2023-03-31T06:35:18;29.05;;;6.88;;
12745;SDS011;6437;53.686;10.030;2023-03-31T06:37:19;27.60;;;5.60;;
12745;SDS011;6437;53.686;10.030;2023-03-31T06:39:21;30.08;;;6.38;;
12745;SDS011;6437;53.686;10.030;2023-03-31T06:41:23;21.58;;;6.25;;
12745;SDS011;6437;53.686;10.030;2023-03-31T06:43:25;31.30;;;7.88;;
12745;SDS011;6437;53.686;10.030;2023-03-31T06:45:27;21.85;;;6.00;;
12745;SDS011;6437;53.686;10.030;2023-03-31T06:47:29;25.30;;;6.20;;
12745;SDS011;6437;53.686;10.030;2023-03-31T06:49:32;19.25;;;6.65;;
12745;SDS011;6437;53.686;10.030;2023-03-31T06:51:34;21.95;;;5.60;;
12745;SDS011;6437;53.686;10.030;2023-03-31T06:53:35;28.23;;;5.97;;
12745;SDS011;6437;53.686;10.030;2023-03-31T06:55:37;29.67;;;7.00;;
12745;SDS011;6437;53.686;10.030;2023-03-31T06:57:39;19.15;;;5.72;;
12745;SDS011;6437;53.686;10.030;2023-03-31T06:59:41;22.67;;;6.05;;
12745;SDS011;6437;53.686;10.030;2023-03-31T07:01:43;16.65;;;5.22;;
12745;SDS011;6437;53.686;10.030;2023-03-31T07:03:45;22.65;;;6.10;;
12745;SDS011;6437;53.686;10.030;2023-03-31T07:05:48;19.25;;;5.75;;
12745;SDS011;6437;53.686;10.030;2023-03-31T07:07:51;33.05;;;5.72;;
12745;SDS011;6437;53.686;10.030;2023-03-31T07:09:52;25.65;;;6.05;;
12745;SDS011;6437;53.686;10.030;2023-03-31T07:11:54;22.60;;;5.18;;
12745;SDS011;6437;53.686;10.030;2023-03-31T07:13:56;19.63;;;5.35;;
12745;SDS011;6437;53.686;10.030;2023-03-31T07:15:58;21.63;;;5.65;;
12745;SDS011;6437;53.686;10.030;2023-03-31T07:18:00;27.15;;;7.00;;
12745;SDS011;6437;53.686;10.030;2023-03-31T07:20:02;23.58;;;5.88;;
12745;SDS011;6437;53.686;10.030;2023-03-31T07:22:09;20.58;;;5.38;;
12745;SDS011;6437;53.686;10.030;2023-03-31T07:24:10;19.05;;;5.35;;
12745;SDS011;6437;53.686;10.030;2023-03-31T07:26:12;25.63;;;6.00;;
12745;SDS011;6437;53.686;10.030;2023-03-31T07:28:14;17.85;;;5.60;;
12745;SDS011;6437;53.686;10.030;2023-03-31T07:32:19;31.05;;;5.68;;
12745;SDS011;6437;53.686;10.030;2023-03-31T07:34:22;19.15;;;5.55;;
12745;SDS011;6437;53.686;10.030;2023-03-31T07:38:27;25.55;;;5.20;;
12745;SDS011;6437;53.686;10.030;2023-03-31T07:40:29;14.50;;;4.50;;
12745;SDS011;6437;53.686;10.030;2023-03-31T07:42:31;26.00;;;4.45;;
12745;SDS011;6437;53.686;10.030;2023-03-31T07:46:35;23.17;;;6.63;;
12745;SDS011;6437;53.686;10.030;2023-03-31T07:48:36;26.88;;;6.30;;
12745;SDS011;6437;53.686;10.030;2023-03-31T07:50:38;28.00;;;6.97;;
12745;SDS011;6437;53.686;10.030;2023-03-31T07:52:40;19.02;;;4.75;;
12745;SDS011;6437;53.686;10.030;2023-03-31T07:54:44;23.92;;;5.90;;
12745;SDS011;6437;53.686;10.030;2023-03-31T07:56:45;20.17;;;5.63;;
12745;SDS011;6437;53.686;10.030;2023-03-31T07:58:47;18.40;;;5.38;;
12745;SDS011;6437;53.686;10.030;2023-03-31T08:00:50;20.77;;;6.53;;
12745;SDS011;6437;53.686;10.030;2023-03-31T08:02:51;15.98;;;5.03;;
12745;SDS011;6437;53.686;10.030;2023-03-31T08:04:53;20.02;;;6.07;;
12745;SDS011;6437;53.686;10.030;2023-03-31T08:06:55;18.25;;;5.30;;
12745;SDS011;6437;53.686;10.030;2023-03-31T08:08:57;19.33;;;5.57;;
12745;SDS011;6437;53.686;10.030;2023-03-31T08:11:00;16.95;;;4.75;;
12745;SDS011;6437;53.686;10.030;2023-03-31T08:13:02;14.65;;;6.03;;
12745;SDS011;6437;53.686;10.030;2023-03-31T08:15:05;15.10;;;5.00;;
12745;SDS011;6437;53.686;10.030;2023-03-31T08:17:08;20.50;;;6.03;;
12745;SDS011;6437;53.686;10.030;2023-03-31T08:19:10;12.70;;;2.88;;
12745;SDS011;6437;53.686;10.030;2023-03-31T08:21:12;15.38;;;3.33;;
12745;SDS011;6437;53.686;10.030;2023-03-31T08:23:14;14.95;;;3.47;;
12745;SDS011;6437;53.686;10.030;2023-03-31T08:25:16;21.77;;;5.03;;
12745;SDS011;6437;53.686;10.030;2023-03-31T08:27:19;15.57;;;4.85;;
12745;SDS011;6437;53.686;10.030;2023-03-31T08:29:21;13.15;;;4.35;;
12745;SDS011;6437;53.686;10.030;2023-03-31T08:31:22;18.38;;;3.67;;
12745;SDS011;6437;53.686;10.030;2023-03-31T08:33:25;16.13;;;3.10;;
12745;SDS011;6437;53.686;10.030;2023-03-31T08:35:26;9.45;;;2.85;;
12745;SDS011;6437;53.686;10.030;2023-03-31T08:37:29;8.90;;;2.70;;
12745;SDS011;6437;53.686;10.030;2023-03-31T08:39:31;16.73;;;2.95;;
12745;SDS011;6437;53.686;10.030;2023-03-31T08:41:39;8.05;;;1.77;;
12745;SDS011;6437;53.686;10.030;2023-03-31T08:43:49;11.20;;;2.40;;
12745;SDS011;6437;53.686;10.030;2023-03-31T08:45:53;10.57;;;2.22;;
12745;SDS011;6437;53.686;10.030;2023-03-31T08:49:59;15.65;;;3.63;;
12745;SDS011;6437;53.686;10.030;2023-03-31T08:52:06;11.60;;;2.80;;
12745;SDS011;6437;53.686;10.030;2023-03-31T08:54:12;9.68;;;2.50;;
12745;SDS011;6437;53.686;10.030;2023-03-31T08:56:16;11.90;;;1.98;;
12745;SDS011;6437;53.686;10.030;2023-03-31T08:58:27;13.23;;;3.30;;
12745;SDS011;6437;53.686;10.030;2023-03-31T09:02:41;13.77;;;3.92;;
12745;SDS011;6437;53.686;10.030;2023-03-31T09:04:51;14.18;;;3.72;;
12745;SDS011;6437;53.686;10.030;2023-03-31T09:07:06;10.75;;;2.70;;
12745;SDS011;6437;53.686;10.030;2023-03-31T09:09:17;12.18;;;2.30;;
12745;SDS011;6437;53.686;10.030;2023-03-31T09:11:25;12.88;;;3.25;;
12745;SDS011;6437;53.686;10.030;2023-03-31T09:13:45;11.73;;;2.90;;
12745;SDS011;6437;53.686;10.030;2023-03-31T09:16:01;12.95;;;3.67;;
12745;SDS011;6437;53.686;10.030;2023-03-31T09:18:12;10.88;;;2.78;;
12745;SDS011;6437;53.686;10.030;2023-03-31T09:20:18;10.18;;;2.83;;
12745;SDS011;6437;53.686;10.030;2023-03-31T09:22:24;11.77;;;3.10;;
12745;SDS011;6437;53.686;10.030;2023-03-31T09:24:30;7.15;;;1.60;;
12745;SDS011;6437;53.686;10.030;2023-03-31T09:26:37;11.80;;;2.42;;
12745;SDS011;6437;53.686;10.030;2023-03-31T09:28:42;8.18;;;1.90;;
12745;SDS011;6437;53.686;10.030;2023-03-31T09:30:45;14.45;;;2.55;;
12745;SDS011;6437;53.686;10.030;2023-03-31T09:32:51;8.00;;;1.77;;
12745;SDS011;6437;53.686;10.030;2023-03-31T09:34:58;14.80;;;2.35;;
12745;SDS011;6437;53.686;10.030;2023-03-31T09:37:02;8.65;;;2.35;;
12745;SDS011;6437;53.686;10.030;2023-03-31T09:41:06;12.23;;;2.97;;
12745;SDS011;6437;53.686;10.030;2023-03-31T09:43:13;12.73;;;2.83;;
12745;SDS011;6437;53.686;10.030;2023-03-31T09:45:21;14.23;;;3.07;;
12745;SDS011;6437;53.686;10.030;2023-03-31T09:47:24;7.10;;;2.40;;
12745;SDS011;6437;53.686;10.030;2023-03-31T09:49:34;10.57;;;2.75;;
12745;SDS011;6437;53.686;10.030;2023-03-31T09:51:37;11.60;;;2.28;;
12745;SDS011;6437;53.686;10.030;2023-03-31T09:53:44;12.73;;;2.75;;
12745;SDS011;6437;53.686;10.030;2023-03-31T09:55:51;10.85;;;3.05;;
12745;SDS011;6437;53.686;10.030;2023-03-31T09:57:55;8.32;;;2.50;;
12745;SDS011;6437;53.686;10.030;2023-03-31T10:00:01;7.38;;;1.80;;
12745;SDS011;6437;53.686;10.030;2023-03-31T10:02:20;4.05;;;1.70;;
12745;SDS011;6437;53.686;10.030;2023-03-31T10:04:28;8.07;;;2.05;;
12745;SDS011;6437;53.686;10.030;2023-03-31T10:06:33;12.43;;;2.55;;
12745;SDS011;6437;53.686;10.030;2023-03-31T10:08:43;7.25;;;1.38;;
12745;SDS011;6437;53.686;10.030;2023-03-31T10:10:49;11.27;;;1.50;;
12745;SDS011;6437;53.686;10.030;2023-03-31T10:12:52;6.28;;;1.70;;
12745;SDS011;6437;53.686;10.030;2023-03-31T10:17:04;8.32;;;1.55;;
12745;SDS011;6437;53.686;10.030;2023-03-31T10:19:10;6.03;;;1.67;;
12745;SDS011;6437;53.686;10.030;2023-03-31T10:21:17;4.22;;;1.55;;
12745;SDS011;6437;53.686;10.030;2023-03-31T10:23:24;6.93;;;1.50;;
12745;SDS011;6437;53.686;10.030;2023-03-31T10:25:28;10.48;;;1.75;;
12745;SDS011;6437;53.686;10.030;2023-03-31T10:27:30;8.98;;;2.10;;
12745;SDS011;6437;53.686;10.030;2023-03-31T10:29:33;11.73;;;1.98;;
12745;SDS011;6437;53.686;10.030;2023-03-31T10:31:35;15.50;;;2.22;;
12745;SDS011;6437;53.686;10.030;2023-03-31T10:33:39;6.22;;;2.08;;
12745;SDS011;6437;53.686;10.030;2023-03-31T10:35:46;6.75;;;1.77;;
12745;SDS011;6437;53.686;10.030;2023-03-31T10:37:49;8.20;;;2.90;;
12745;SDS011;6437;53.686;10.030;2023-03-31T10:39:59;7.53;;;3.15;;
12745;SDS011;6437;53.686;10.030;2023-03-31T10:42:04;5.70;;;2.40;;
12745;SDS011;6437;53.686;10.030;2023-03-31T10:44:22;8.35;;;2.35;;
12745;SDS011;6437;53.686;10.030;2023-03-31T10:46:39;5.45;;;2.63;;
12745;SDS011;6437;53.686;10.030;2023-03-31T10:48:43;9.82;;;2.60;;
12745;SDS011;6437;53.686;10.030;2023-03-31T10:50:46;7.18;;;2.03;;
12745;SDS011;6437;53.686;10.030;2023-03-31T10:52:48;9.90;;;3.05;;
12745;SDS011;6437;53.686;10.030;2023-03-31T10:54:51;8.60;;;3.08;;
12745;SDS011;6437;53.686;10.030;2023-03-31T10:56:58;8.90;;;2.67;;
12745;SDS011;6437;53.686;10.030;2023-03-31T10:59:12;14.60;;;3.28;;
12745;SDS011;6437;53.686;10.030;2023-03-31T11:01:24;10.65;;;3.60;;
12745;SDS011;6437;53.686;10.030;2023-03-31T11:03:41;6.72;;;2.80;;
12745;SDS011;6437;53.686;10.030;2023-03-31T11:06:06;9.18;;;3.47;;
12745;SDS011;6437;53.686;10.030;2023-03-31T11:10:52;10.32;;;2.45;;
12745;SDS011;6437;53.686;10.030;2023-03-31T11:13:06;6.43;;;1.90;;
12745;SDS011;6437;53.686;10.030;2023-03-31T11:15:16;6.13;;;2.03;;
12745;SDS011;6437;53.686;10.030;2023-03-31T11:17:25;7.68;;;2.05;;
12745;SDS011;6437;53.686;10.030;2023-03-31T11:19:37;7.30;;;2.30;;
12745;SDS011;6437;53.686;10.030;2023-03-31T11:21:48;9.23;;;2.70;;
12745;SDS011;6437;53.686;10.030;2023-03-31T11:23:59;6.30;;;1.65;;
12745;SDS011;6437;53.686;10.030;2023-03-31T11:26:06;11.55;;;1.58;;
12745;SDS011;6437;53.686;10.030;2023-03-31T11:28:33;8.75;;;2.42;;
12745;SDS011;6437;53.686;10.030;2023-03-31T11:30:47;6.63;;;1.65;;
12745;SDS011;6437;53.686;10.030;2023-03-31T11:32:57;6.43;;;1.98;;
12745;SDS011;6437;53.686;10.030;2023-03-31T11:35:11;8.25;;;1.67;;
12745;SDS011;6437;53.686;10.030;2023-03-31T11:37:28;5.85;;;2.10;;
12745;SDS011;6437;53.686;10.030;2023-03-31T11:39:43;5.72;;;1.70;;
12745;SDS011;6437;53.686;10.030;2023-03-31T11:41:57;10.77;;;1.33;;
12745;SDS011;6437;53.686;10.030;2023-03-31T11:44:03;6.53;;;2.13;;
12745;SDS011;6437;53.686;10.030;2023-03-31T11:46:10;4.60;;;1.33;;
12745;SDS011;6437;53.686;10.030;2023-03-31T11:48:17;6.22;;;1.58;;
12745;SDS011;6437;53.686;10.030;2023-03-31T11:50:26;8.07;;;1.42;;
12745;SDS011;6437;53.686;10.030;2023-03-31T11:52:31;4.97;;;1.63;;
12745;SDS011;6437;53.686;10.030;2023-03-31T11:54:35;6.03;;;1.38;;
12745;SDS011;6437;53.686;10.030;2023-03-31T11:56:41;6.18;;;1.52;;
12745;SDS011;6437;53.686;10.030;2023-03-31T11:58:44;5.97;;;1.40;;
12745;SDS011;6437;53.686;10.030;2023-03-31T12:00:52;9.10;;;1.63;;
12745;SDS011;6437;53.686;10.030;2023-03-31T12:03:01;5.78;;;1.23;;
12745;SDS011;6437;53.686;10.030;2023-03-31T12:05:10;7.20;;;1.50;;
12745;SDS011;6437;53.686;10.030;2023-03-31T12:07:21;11.27;;;1.17;;
12745;SDS011;6437;53.686;10.030;2023-03-31T12:09:28;16.58;;;1.92;;
12745;SDS011;6437;53.686;10.030;2023-03-31T12:11:37;8.75;;;1.33;;
12745;SDS011;6437;53.686;10.030;2023-03-31T12:13:44;7.20;;;1.55;;
12745;SDS011;6437;53.686;10.030;2023-03-31T12:15:53;8.40;;;1.58;;
12745;SDS011;6437;53.686;10.030;2023-03-31T12:18:02;8.38;;;1.40;;
12745;SDS011;6437;53.686;10.030;2023-03-31T12:20:11;5.43;;;1.33;;
12745;SDS011;6437;53.686;10.030;2023-03-31T12:22:21;8.27;;;0.95;;
12745;SDS011;6437;53.686;10.030;2023-03-31T12:24:25;10.90;;;1.48;;
12745;SDS011;6437;53.686;10.030;2023-03-31T12:26:30;6.10;;;1.85;;
12745;SDS011;6437;53.686;10.030;2023-03-31T12:28:37;4.05;;;0.77;;
12745;SDS011;6437;53.686;10.030;2023-03-31T12:30:42;8.27;;;1.58;;
12745;SDS011;6437;53.686;10.030;2023-03-31T12:32:48;6.03;;;1.25;;
12745;SDS011;6437;53.686;10.030;2023-03-31T12:34:58;6.25;;;1.15;;
12745;SDS011;6437;53.686;10.030;2023-03-31T12:37:07;4.38;;;0.98;;
12745;SDS011;6437;53.686;10.030;2023-03-31T12:39:38;4.47;;;1.02;;
12745;SDS011;6437;53.686;10.030;2023-03-31T12:41:53;7.95;;;1.23;;
12745;SDS011;6437;53.686;10.030;2023-03-31T12:49:11;4.82;;;0.90;;
12745;SDS011;6437;53.686;10.030;2023-03-31T12:51:37;7.40;;;1.10;;
12745;SDS011;6437;53.686;10.030;2023-03-31T12:53:59;2.38;;;0.82;;
12745;SDS011;6437;53.686;10.030;2023-03-31T12:56:12;6.32;;;1.13;;
12745;SDS011;6437;53.686;10.030;2023-03-31T13:00:43;4.25;;;0.75;;
12745;SDS011;6437;53.686;10.030;2023-03-31T13:07:49;3.95;;;0.90;;
12745;SDS011;6437;53.686;10.030;2023-03-31T13:09:54;4.10;;;1.00;;
12745;SDS011;6437;53.686;10.030;2023-03-31T13:11:56;2.53;;;0.98;;
12745;SDS011;6437;53.686;10.030;2023-03-31T13:13:59;7.30;;;1.52;;
12745;SDS011;6437;53.686;10.030;2023-03-31T13:16:02;4.47;;;1.52;;